createdAt,value
2017-12-26T00:02:17.966Z,94.60
2017-12-26T00:04:46.981Z,95.50
2017-12-26T00:07:16.815Z,95.40
2017-12-26T00:09:45.306Z,94.70
2017-12-26T00:12:13.611Z,94.70
2017-12-26T00:14:41.862Z,94.80
2017-12-26T00:17:10.235Z,95.30
2017-12-26T00:19:38.506Z,95.30
2017-12-26T00:22:06.750Z,95.10
2017-12-26T00:24:35.027Z,95.10
2017-12-26T00:27:04.046Z,94.80
2017-12-26T00:29:32.294Z,94.80
2017-12-26T00:32:01.650Z,95.00
2017-12-26T00:34:29.898Z,95.00
2017-12-26T00:36:58.382Z,95.40
2017-12-26T00:39:27.111Z,95.20
2017-12-26T00:41:55.362Z,95.80
2017-12-26T00:44:23.602Z,95.20
2017-12-26T00:46:51.884Z,94.90
2017-12-26T00:49:20.178Z,95.00
2017-12-26T00:51:48.513Z,95.00
2017-12-26T00:54:16.866Z,95.30
2017-12-26T00:56:45.113Z,95.60
2017-12-26T00:59:13.362Z,95.80
2017-12-26T01:01:41.638Z,95.10
2017-12-26T01:04:10.709Z,96.00
2017-12-26T01:06:38.946Z,96.00
2017-12-26T01:09:07.756Z,95.50
2017-12-26T01:11:35.990Z,95.60
2017-12-26T01:14:04.266Z,95.80
2017-12-26T01:16:32.784Z,95.70
2017-12-26T01:19:01.041Z,95.60
2017-12-26T01:21:29.283Z,95.40
2017-12-26T01:23:58.325Z,94.80
2017-12-26T01:26:26.562Z,94.80
2017-12-26T01:28:55.582Z,94.70
2017-12-26T01:31:23.901Z,94.70
2017-12-26T01:33:52.098Z,94.80
2017-12-26T01:36:21.266Z,96.00
2017-12-26T01:38:49.875Z,95.60
2017-12-26T01:41:18.343Z,95.10
2017-12-26T01:43:46.591Z,94.80
2017-12-26T01:46:23.676Z,94.80
2017-12-26T01:48:51.926Z,94.80
2017-12-26T01:51:21.374Z,94.70
2017-12-26T01:53:49.653Z,94.80
2017-12-26T01:56:17.907Z,94.80
2017-12-26T01:58:46.200Z,94.80
2017-12-26T02:01:15.434Z,95.10
2017-12-26T02:03:43.679Z,95.60
2017-12-26T02:06:11.954Z,95.10
2017-12-26T02:08:40.394Z,95.40
2017-12-26T02:11:10.942Z,95.60
2017-12-26T02:13:39.179Z,95.60
2017-12-26T02:16:07.450Z,95.40
2017-12-26T02:18:36.466Z,95.20
2017-12-26T02:21:04.715Z,95.20
2017-12-26T02:23:33.826Z,95.40
2017-12-26T02:26:02.070Z,95.40
2017-12-26T02:28:30.323Z,95.20
2017-12-26T02:30:58.623Z,95.20
2017-12-26T02:33:26.869Z,95.50
2017-12-26T02:35:55.115Z,95.10
2017-12-26T02:38:23.386Z,95.00
2017-12-26T02:40:53.574Z,95.40
2017-12-26T02:43:21.818Z,95.30
2017-12-26T02:45:50.158Z,95.10
2017-12-26T02:48:19.171Z,95.80
2017-12-26T02:50:47.425Z,95.80
2017-12-26T02:53:16.463Z,95.40
2017-12-26T02:55:44.762Z,95.40
2017-12-26T02:58:13.014Z,95.30
2017-12-26T03:00:41.286Z,95.60
2017-12-26T03:03:09.530Z,96.10
2017-12-26T03:05:37.853Z,96.10
2017-12-26T03:08:06.974Z,96.20
2017-12-26T03:10:35.350Z,96.20
2017-12-26T03:13:04.038Z,96.20
2017-12-26T03:15:32.306Z,96.20
2017-12-26T03:18:00.566Z,96.10
2017-12-26T03:20:28.822Z,95.80
2017-12-26T03:22:57.086Z,96.10
2017-12-26T03:25:25.339Z,96.20
2017-12-26T03:27:54.354Z,96.40
2017-12-26T03:30:22.839Z,96.40
2017-12-26T03:32:51.260Z,96.50
2017-12-26T03:35:19.482Z,96.50
2017-12-26T03:37:48.524Z,96.40
2017-12-26T03:40:16.774Z,96.40
2017-12-26T03:42:45.036Z,96.20
2017-12-26T03:45:14.218Z,96.30
2017-12-26T03:47:43.234Z,96.30
2017-12-26T03:50:11.493Z,96.30
2017-12-26T03:52:40.591Z,96.20
2017-12-26T03:55:09.611Z,96.00
2017-12-26T03:57:37.881Z,96.00
2017-12-26T04:00:06.163Z,96.60
2017-12-26T04:02:34.429Z,96.30
2017-12-26T04:05:02.766Z,96.10
2017-12-26T04:07:31.047Z,96.40
2017-12-26T04:09:59.518Z,96.00
2017-12-26T04:12:27.898Z,95.80
2017-12-26T04:14:57.095Z,96.00
2017-12-26T04:17:25.337Z,95.70
2017-12-26T04:19:53.654Z,96.00
2017-12-26T04:22:21.935Z,95.90
2017-12-26T04:24:50.178Z,95.80
2017-12-26T04:27:18.434Z,96.20
2017-12-26T04:29:46.713Z,95.80
2017-12-26T04:32:14.970Z,95.90
2017-12-26T04:34:44.266Z,96.00
2017-12-26T04:37:13.394Z,95.60
2017-12-26T04:39:41.638Z,95.60
2017-12-26T04:42:10.662Z,95.50
2017-12-26T04:44:38.930Z,95.50
2017-12-26T04:47:07.216Z,95.60
2017-12-26T04:49:35.486Z,96.10
2017-12-26T04:52:03.762Z,96.00
2017-12-26T04:54:32.194Z,96.30
2017-12-26T04:57:00.442Z,96.40
2017-12-26T04:59:30.062Z,95.80
2017-12-26T05:01:58.298Z,95.80
2017-12-26T05:04:26.586Z,95.90
2017-12-26T05:06:54.982Z,96.00
2017-12-26T05:09:25.230Z,96.00
2017-12-26T05:11:53.669Z,95.70
2017-12-26T05:14:22.015Z,95.80
2017-12-26T05:16:51.214Z,95.60
2017-12-26T05:19:19.457Z,95.60
2017-12-26T05:21:47.814Z,95.40
2017-12-26T05:24:16.122Z,95.60
2017-12-26T05:26:44.370Z,95.40
2017-12-26T05:29:12.779Z,95.50
2017-12-26T05:31:41.034Z,95.40
2017-12-26T05:34:09.278Z,95.40
2017-12-26T05:36:37.742Z,95.40
2017-12-26T05:39:06.758Z,95.90
2017-12-26T05:41:35.058Z,95.90
2017-12-26T05:44:03.422Z,95.80
2017-12-26T05:46:31.666Z,95.60
2017-12-26T05:49:00.686Z,95.60
2017-12-26T05:51:28.957Z,95.60
2017-12-26T05:53:57.231Z,95.40
2017-12-26T05:56:25.666Z,95.30
2017-12-26T05:58:53.942Z,95.30
2017-12-26T06:01:22.204Z,95.20
2017-12-26T06:03:50.494Z,95.40
2017-12-26T06:06:18.979Z,95.30
2017-12-26T06:08:47.302Z,95.20
2017-12-26T06:11:15.534Z,95.20
2017-12-26T06:13:43.875Z,95.10
2017-12-26T06:16:12.123Z,95.30
2017-12-26T06:18:41.229Z,95.30
2017-12-26T06:21:10.710Z,95.20
2017-12-26T06:23:39.738Z,95.20
2017-12-26T06:26:11.510Z,95.20
2017-12-26T06:28:39.771Z,95.00
2017-12-26T06:31:08.023Z,95.00
2017-12-26T06:33:37.225Z,94.90
2017-12-26T06:36:06.277Z,94.90
2017-12-26T06:38:34.518Z,94.90
2017-12-26T06:41:02.971Z,94.90
2017-12-26T06:43:32.070Z,95.10
2017-12-26T06:46:01.082Z,95.10
2017-12-26T06:48:31.043Z,95.00
2017-12-26T06:50:59.286Z,95.10
2017-12-26T06:53:27.534Z,95.60
2017-12-26T06:55:57.885Z,95.30
2017-12-26T06:58:26.194Z,95.10
2017-12-26T07:00:54.446Z,95.00
2017-12-26T07:03:22.718Z,95.20
2017-12-26T07:05:53.194Z,95.50
2017-12-26T07:08:23.842Z,95.20
2017-12-26T07:10:52.912Z,95.00
2017-12-26T07:13:22.324Z,95.00
2017-12-26T07:15:50.595Z,95.10
2017-12-26T07:18:18.861Z,95.10
2017-12-26T07:20:52.871Z,95.10
2017-12-26T07:23:21.094Z,95.00
2017-12-26T07:25:50.111Z,95.40
2017-12-26T07:28:18.813Z,95.40
2017-12-26T07:30:47.071Z,96.00
2017-12-26T07:33:15.358Z,95.90
2017-12-26T07:35:43.626Z,95.00
2017-12-26T07:38:11.894Z,94.70
2017-12-26T07:40:40.326Z,94.40
2017-12-26T07:43:08.638Z,93.80
2017-12-26T07:45:37.074Z,93.60
2017-12-26T07:48:05.318Z,93.90
2017-12-26T07:50:33.671Z,95.00
2017-12-26T07:53:01.905Z,95.50
2017-12-26T07:55:30.146Z,95.40
2017-12-26T07:57:58.561Z,95.90
2017-12-26T08:00:27.594Z,94.80
2017-12-26T08:02:55.847Z,94.20
2017-12-26T08:05:24.150Z,94.10
2017-12-26T08:07:53.170Z,93.00
2017-12-26T08:10:21.427Z,93.00
2017-12-26T08:12:50.238Z,94.10
2017-12-26T08:15:18.493Z,93.90
2017-12-26T08:17:47.506Z,95.10
2017-12-26T08:20:15.786Z,95.10
2017-12-26T08:22:44.502Z,95.70
2017-12-26T08:25:12.723Z,95.90
2017-12-26T08:27:41.758Z,96.10
2017-12-26T08:30:10.012Z,96.10
2017-12-26T08:32:38.262Z,96.10
2017-12-26T08:35:07.438Z,96.10
2017-12-26T08:37:35.682Z,96.10
2017-12-26T08:40:03.946Z,94.90
2017-12-26T08:42:32.238Z,93.00
2017-12-26T08:45:00.643Z,91.60
2017-12-26T08:47:29.946Z,91.10
2017-12-26T08:49:59.383Z,92.50
2017-12-26T08:52:28.860Z,93.00
2017-12-26T08:54:57.135Z,93.50
2017-12-26T08:57:25.686Z,94.10
2017-12-26T08:59:53.946Z,95.00
2017-12-26T09:02:22.375Z,95.80
2017-12-26T09:04:53.854Z,96.10
2017-12-26T09:07:22.878Z,94.00
2017-12-26T09:09:52.118Z,93.90
2017-12-26T09:12:20.674Z,93.20
2017-12-26T09:14:51.030Z,90.70
2017-12-26T09:17:19.311Z,95.60
2017-12-26T09:19:47.876Z,91.20
2017-12-26T09:22:16.123Z,91.30
2017-12-26T09:24:44.558Z,93.20
2017-12-26T09:27:12.958Z,93.10
2017-12-26T09:29:41.977Z,90.50
2017-12-26T09:32:10.226Z,90.40
2017-12-26T09:34:38.705Z,82.70
2017-12-26T09:37:07.727Z,80.80
2017-12-26T09:39:36.974Z,80.50
2017-12-26T09:42:05.734Z,78.40
2017-12-26T09:44:34.035Z,78.70
2017-12-26T09:47:03.334Z,80.20
2017-12-26T09:49:35.434Z,83.00
2017-12-26T09:52:04.562Z,83.00
2017-12-26T09:54:32.809Z,82.90
2017-12-26T09:57:02.106Z,83.70
2017-12-26T09:59:31.126Z,82.30
2017-12-26T10:01:59.450Z,82.30
2017-12-26T10:04:27.782Z,85.50
2017-12-26T10:06:56.034Z,85.50
2017-12-26T10:09:24.294Z,91.10
2017-12-26T10:11:52.677Z,87.30
2017-12-26T10:14:21.079Z,80.10
2017-12-26T10:16:50.086Z,77.80
2017-12-26T10:19:18.366Z,77.60
2017-12-26T10:21:46.798Z,79.80
2017-12-26T10:24:15.668Z,75.70
2017-12-26T10:26:45.187Z,73.50
2017-12-26T10:29:15.650Z,74.10
2017-12-26T10:31:43.942Z,75.00
2017-12-26T10:34:12.403Z,76.40
2017-12-26T10:36:41.436Z,82.40
2017-12-26T10:39:10.383Z,82.30
2017-12-26T10:41:38.774Z,84.20
2017-12-26T10:44:07.821Z,85.80
2017-12-26T10:46:36.111Z,85.80
2017-12-26T10:49:04.613Z,87.00
2017-12-26T10:51:32.866Z,87.10
2017-12-26T10:54:01.254Z,90.00
2017-12-26T10:56:29.661Z,91.10
2017-12-26T10:58:58.722Z,87.70
2017-12-26T11:01:27.958Z,87.70
2017-12-26T11:03:57.040Z,85.30
2017-12-26T11:06:25.448Z,85.20
2017-12-26T11:08:53.678Z,86.00
2017-12-26T11:11:23.196Z,87.00
2017-12-26T11:13:54.119Z,88.50
2017-12-26T11:16:22.530Z,88.50
2017-12-26T11:18:51.583Z,89.80
2017-12-26T11:21:20.571Z,89.80
2017-12-26T11:23:48.899Z,90.30
2017-12-26T11:26:18.506Z,90.80
2017-12-26T11:28:47.771Z,91.20
2017-12-26T11:31:16.022Z,91.20
2017-12-26T11:33:44.359Z,91.30
2017-12-26T11:36:12.606Z,91.10
2017-12-26T11:38:41.035Z,91.30
2017-12-26T11:41:09.419Z,91.90
2017-12-26T11:43:38.663Z,91.90
2017-12-26T11:46:07.042Z,92.90
2017-12-26T11:48:35.667Z,93.20
2017-12-26T11:51:03.979Z,93.90
2017-12-26T11:53:33.406Z,94.60
2017-12-26T11:56:03.732Z,96.00
2017-12-26T11:58:32.335Z,95.60
2017-12-26T12:01:00.616Z,92.10
2017-12-26T12:03:28.903Z,92.40
2017-12-26T12:06:02.063Z,90.50
2017-12-26T12:08:30.347Z,90.40
2017-12-26T12:10:58.818Z,85.70
2017-12-26T12:13:27.262Z,83.50
2017-12-26T12:15:55.654Z,82.60
2017-12-26T12:18:23.995Z,84.20
2017-12-26T12:20:54.186Z,84.30
2017-12-26T12:23:23.533Z,84.00
2017-12-26T12:25:52.532Z,86.40
2017-12-26T12:28:21.131Z,86.30
2017-12-26T12:30:49.570Z,85.90
2017-12-26T12:33:18.639Z,82.10
2017-12-26T12:35:46.911Z,82.10
2017-12-26T12:38:16.407Z,79.80
2017-12-26T12:40:46.738Z,80.20
2017-12-26T12:43:14.975Z,82.40
2017-12-26T12:45:43.258Z,83.00
2017-12-26T12:48:11.767Z,84.10
2017-12-26T12:50:40.907Z,85.40
2017-12-26T12:53:09.935Z,86.90
2017-12-26T12:55:38.174Z,86.80
2017-12-26T12:58:06.419Z,87.60
2017-12-26T13:00:34.935Z,87.50
2017-12-26T13:03:03.179Z,87.50
2017-12-26T13:05:31.459Z,87.90
2017-12-26T13:07:59.867Z,89.00
2017-12-26T13:10:34.971Z,90.30
2017-12-26T13:13:03.255Z,90.30
2017-12-26T13:15:31.514Z,90.00
2017-12-26T13:17:59.802Z,90.90
2017-12-26T13:20:28.117Z,91.30
2017-12-26T13:22:56.567Z,92.10
2017-12-26T13:25:24.963Z,93.00
2017-12-26T13:27:53.226Z,93.30
2017-12-26T13:30:21.483Z,94.50
2017-12-26T13:32:49.771Z,94.70
2017-12-26T13:35:18.310Z,95.40
2017-12-26T13:37:46.671Z,97.60
2017-12-26T13:40:14.911Z,98.00
2017-12-26T13:42:43.687Z,98.10
2017-12-26T13:45:11.976Z,98.60
2017-12-26T13:47:40.343Z,98.30
2017-12-26T13:50:08.602Z,98.50
2017-12-26T13:52:38.034Z,97.90
2017-12-26T13:55:06.304Z,97.50
2017-12-26T13:57:34.546Z,97.50
2017-12-26T14:00:02.797Z,97.50
2017-12-26T14:02:31.038Z,97.40
2017-12-26T14:04:59.698Z,97.40
2017-12-26T14:07:28.006Z,96.70
2017-12-26T14:09:56.382Z,96.70
2017-12-26T14:12:24.872Z,95.30
2017-12-26T14:14:54.370Z,95.70
2017-12-26T14:17:22.769Z,95.50
2017-12-26T14:19:51.324Z,95.70
2017-12-26T14:22:19.544Z,95.40
2017-12-26T14:24:48.562Z,95.00
2017-12-26T14:27:18.183Z,94.90
2017-12-26T14:29:47.442Z,95.20
2017-12-26T14:32:16.799Z,95.80
2017-12-26T14:34:45.063Z,95.80
2017-12-26T14:37:13.314Z,94.80
2017-12-26T14:39:41.546Z,95.00
2017-12-26T14:42:09.950Z,94.20
2017-12-26T14:44:38.950Z,94.00
2017-12-26T14:47:07.961Z,94.00
2017-12-26T14:49:36.793Z,94.00
2017-12-26T14:52:05.011Z,92.80
2017-12-26T14:54:34.014Z,90.90
2017-12-26T14:57:02.380Z,90.80
2017-12-26T14:59:31.387Z,90.50
2017-12-26T15:01:59.619Z,90.50
2017-12-26T15:04:27.894Z,90.40
2017-12-26T15:06:58.336Z,90.50
2017-12-26T15:09:26.716Z,90.70
2017-12-26T15:11:55.186Z,90.10
2017-12-26T15:14:23.445Z,90.60
2017-12-26T15:16:51.838Z,90.20
2017-12-26T15:19:20.107Z,88.00
2017-12-26T15:21:48.382Z,85.20
2017-12-26T15:24:16.598Z,85.80
2017-12-26T15:26:44.879Z,84.10
2017-12-26T15:29:14.353Z,83.90
2017-12-26T15:31:42.582Z,85.10
2017-12-26T15:34:10.893Z,83.50
2017-12-26T15:36:39.135Z,79.70
2017-12-26T15:39:07.562Z,79.50
2017-12-26T15:41:35.827Z,81.20
2017-12-26T15:44:04.066Z,81.00
2017-12-26T15:46:32.567Z,83.10
2017-12-26T15:49:00.807Z,83.70
2017-12-26T15:51:29.857Z,85.90
2017-12-26T15:53:58.074Z,85.90
2017-12-26T15:56:26.682Z,89.50
2017-12-26T15:58:54.931Z,88.50
2017-12-26T16:01:23.931Z,90.20
2017-12-26T16:03:55.380Z,90.20
2017-12-26T16:06:24.378Z,87.10
2017-12-26T16:08:53.394Z,83.00
2017-12-26T16:11:23.942Z,83.00
2017-12-26T16:13:53.366Z,81.50
2017-12-26T16:16:21.603Z,81.80
2017-12-26T16:18:50.009Z,80.80
2017-12-26T16:21:18.264Z,79.70
2017-12-26T16:23:47.602Z,79.30
2017-12-26T16:26:16.006Z,77.40
2017-12-26T16:28:45.011Z,79.60
2017-12-26T16:31:14.026Z,79.20
2017-12-26T16:33:42.482Z,79.20
2017-12-26T16:36:17.382Z,80.10
2017-12-26T16:38:45.785Z,80.10
2017-12-26T16:41:14.038Z,80.30
2017-12-26T16:43:42.307Z,81.20
2017-12-26T16:46:10.567Z,82.60
2017-12-26T16:48:38.802Z,83.40
2017-12-26T16:51:07.819Z,86.70
2017-12-26T16:53:36.419Z,86.70
2017-12-26T16:56:04.657Z,86.90
2017-12-26T16:58:33.657Z,86.30
2017-12-26T17:01:02.894Z,85.20
2017-12-26T17:03:31.128Z,85.20
2017-12-26T17:05:59.372Z,83.50
2017-12-26T17:08:27.632Z,83.20
2017-12-26T17:10:55.883Z,82.50
2017-12-26T17:13:24.131Z,82.30
2017-12-26T17:15:53.167Z,79.70
2017-12-26T17:18:21.403Z,79.50
2017-12-26T17:20:49.646Z,78.40
2017-12-26T17:23:17.953Z,78.10
2017-12-26T17:25:46.960Z,79.60
2017-12-26T17:28:15.193Z,78.70
2017-12-26T17:30:43.450Z,78.90
2017-12-26T17:33:11.693Z,78.10
2017-12-26T17:35:40.587Z,78.70
2017-12-26T17:38:08.837Z,79.00
2017-12-26T17:40:37.839Z,79.90
2017-12-26T17:43:06.854Z,80.20
2017-12-26T17:45:35.662Z,80.30
2017-12-26T17:48:03.898Z,81.30
2017-12-26T17:50:32.908Z,81.60
2017-12-26T17:53:01.175Z,81.60
2017-12-26T17:55:29.406Z,81.90
2017-12-26T17:57:57.642Z,83.00
2017-12-26T18:00:25.910Z,84.10
2017-12-26T18:02:54.150Z,85.00
2017-12-26T18:05:23.498Z,84.80
2017-12-26T18:07:51.829Z,82.70
2017-12-26T18:10:20.198Z,81.20
2017-12-26T18:12:48.438Z,79.40
2017-12-26T18:15:16.706Z,80.20
2017-12-26T18:17:44.955Z,79.60
2017-12-26T18:20:13.197Z,80.70
2017-12-26T18:22:41.449Z,80.30
2017-12-26T18:25:09.683Z,79.40
2017-12-26T18:27:38.702Z,80.90
2017-12-26T18:30:07.253Z,80.90
2017-12-26T18:32:35.485Z,79.30
2017-12-26T18:35:03.725Z,78.50
2017-12-26T18:37:32.757Z,78.00
2017-12-26T18:40:00.993Z,78.00
2017-12-26T18:42:29.427Z,77.00
2017-12-26T18:44:57.693Z,77.00
2017-12-26T18:47:25.925Z,75.00
2017-12-26T18:49:54.937Z,75.10
2017-12-26T18:52:23.297Z,75.10
2017-12-26T18:54:53.474Z,76.20
2017-12-26T18:57:21.745Z,76.10
2017-12-26T18:59:49.986Z,78.00
2017-12-26T19:02:18.234Z,78.40
2017-12-26T19:04:46.465Z,79.20
2017-12-26T19:07:14.777Z,78.60
2017-12-26T19:09:43.024Z,79.60
2017-12-26T19:12:11.277Z,79.60
2017-12-26T19:14:40.505Z,79.50
2017-12-26T19:17:08.726Z,80.00
2017-12-26T19:19:37.734Z,80.20
2017-12-26T19:22:06.298Z,80.20
2017-12-26T19:24:35.301Z,81.70
2017-12-26T19:27:04.305Z,80.20
2017-12-26T19:29:32.565Z,80.10
2017-12-26T19:32:00.807Z,81.40
2017-12-26T19:34:29.085Z,82.60
2017-12-26T19:36:57.529Z,82.90
2017-12-26T19:39:25.977Z,78.90
2017-12-26T19:41:54.985Z,80.70
2017-12-26T19:44:24.029Z,81.00
2017-12-26T19:46:52.246Z,81.00
2017-12-26T19:49:21.265Z,82.80
2017-12-26T19:51:49.541Z,82.90
2017-12-26T19:54:17.761Z,83.60
2017-12-26T19:56:45.999Z,83.10
2017-12-26T19:59:14.345Z,84.30
2017-12-26T20:01:42.793Z,86.40
2017-12-26T20:04:11.089Z,84.40
2017-12-26T20:06:39.314Z,83.70
2017-12-26T20:09:11.613Z,85.30
2017-12-26T20:11:39.869Z,87.60
2017-12-26T20:14:08.106Z,87.60
2017-12-26T20:16:37.358Z,89.70
2017-12-26T20:19:05.938Z,88.90
2017-12-26T20:21:34.166Z,88.50
2017-12-26T20:24:03.302Z,88.50
2017-12-26T20:26:31.881Z,88.40
2017-12-26T20:29:00.117Z,87.30
2017-12-26T20:31:28.555Z,89.30
2017-12-26T20:33:56.833Z,90.10
2017-12-26T20:36:25.062Z,87.90
2017-12-26T20:38:54.066Z,88.20
2017-12-26T20:41:22.805Z,88.20
2017-12-26T20:43:51.041Z,89.50
2017-12-26T20:46:19.287Z,89.00
2017-12-26T20:48:48.314Z,87.90
2017-12-26T20:51:16.558Z,87.80
2017-12-26T20:53:45.578Z,87.50
2017-12-26T20:56:13.838Z,87.50
2017-12-26T20:58:42.073Z,87.30
2017-12-26T21:01:10.310Z,88.20
2017-12-26T21:03:38.806Z,88.90
2017-12-26T21:06:07.107Z,90.50
2017-12-26T21:08:35.341Z,90.60
2017-12-26T21:11:03.614Z,90.00
2017-12-26T21:13:31.859Z,91.00
2017-12-26T21:16:00.098Z,90.30
2017-12-26T21:18:28.358Z,90.30
2017-12-26T21:20:56.930Z,90.70
2017-12-26T21:23:25.910Z,90.60
2017-12-26T21:25:54.230Z,90.60
2017-12-26T21:28:22.470Z,90.80
2017-12-26T21:30:50.713Z,90.40
2017-12-26T21:33:18.973Z,90.30
2017-12-26T21:35:47.347Z,90.70
2017-12-26T21:38:15.581Z,89.20
2017-12-26T21:40:43.851Z,89.80
2017-12-26T21:43:13.002Z,90.40
2017-12-26T21:45:41.246Z,90.40
2017-12-26T21:48:09.658Z,91.20
2017-12-26T21:50:38.026Z,91.60
2017-12-26T21:53:06.246Z,91.00
2017-12-26T21:55:34.509Z,92.10
2017-12-26T21:58:03.514Z,91.20
2017-12-26T22:00:32.526Z,91.80
2017-12-26T22:03:00.786Z,91.90
2017-12-26T22:05:29.796Z,92.40
2017-12-26T22:07:59.043Z,92.40
2017-12-26T22:10:27.365Z,91.70
2017-12-26T22:12:55.610Z,91.00
2017-12-26T22:15:23.850Z,91.40
2017-12-26T22:17:52.109Z,91.40
2017-12-26T22:20:20.350Z,91.70
2017-12-26T22:22:49.358Z,91.90
2017-12-26T22:25:18.389Z,92.50
2017-12-26T22:27:51.598Z,92.60
2017-12-26T22:30:20.153Z,91.50
2017-12-26T22:32:48.389Z,92.70
2017-12-26T22:35:16.882Z,93.10
2017-12-26T22:37:45.905Z,92.70
2017-12-26T22:40:14.150Z,92.60
2017-12-26T22:42:43.153Z,92.10
2017-12-26T22:45:12.280Z,92.40
2017-12-26T22:47:40.522Z,92.40
2017-12-26T22:50:08.759Z,92.10
2017-12-26T22:52:37.314Z,92.90
2017-12-26T22:55:06.545Z,92.60
2017-12-26T22:57:34.786Z,92.60
2017-12-26T23:00:03.050Z,91.80
2017-12-26T23:02:31.285Z,92.40
2017-12-26T23:04:59.522Z,92.70
2017-12-26T23:07:27.846Z,92.20
2017-12-26T23:09:56.088Z,92.30
2017-12-26T23:12:24.321Z,91.80
2017-12-26T23:14:58.434Z,91.80
2017-12-26T23:17:32.403Z,91.90
2017-12-26T23:20:06.506Z,92.80
2017-12-26T23:22:34.747Z,92.40
2017-12-26T23:25:08.673Z,92.20
2017-12-26T23:27:42.529Z,92.10
2017-12-26T23:30:16.801Z,91.50
2017-12-26T23:32:50.722Z,91.60
2017-12-26T23:35:24.549Z,91.30
2017-12-26T23:37:58.352Z,92.10
2017-12-26T23:40:32.382Z,92.10
2017-12-26T23:43:06.322Z,91.40
2017-12-26T23:45:40.865Z,91.90
2017-12-26T23:48:14.622Z,91.50
2017-12-26T23:50:48.586Z,91.60
2017-12-26T23:53:22.565Z,92.60
2017-12-26T23:55:57.165Z,91.90
2017-12-26T23:58:30.993Z,91.90
